createdAt,value
2017-09-10T00:01:26.691Z,12.94
2017-09-10T00:03:55.064Z,12.94
2017-09-10T00:06:23.649Z,12.92
2017-09-10T00:08:57.342Z,12.89
2017-09-10T00:11:25.954Z,12.87
2017-09-10T00:13:54.853Z,12.83
2017-09-10T00:16:23.246Z,12.81
2017-09-10T00:18:51.829Z,12.80
2017-09-10T00:21:20.967Z,12.78
2017-09-10T00:23:49.280Z,12.77
2017-09-10T00:26:17.597Z,12.74
2017-09-10T00:28:45.941Z,12.71
2017-09-10T00:31:14.262Z,12.68
2017-09-10T00:33:44.558Z,12.64
2017-09-10T00:36:13.611Z,12.60
2017-09-10T00:38:44.041Z,12.58
2017-09-10T00:41:12.378Z,12.56
2017-09-10T00:43:40.727Z,12.56
2017-09-10T00:46:11.072Z,12.54
2017-09-10T00:48:40.667Z,12.54
2017-09-10T00:51:09.276Z,12.53
2017-09-10T00:53:38.401Z,12.52
2017-09-10T00:56:06.742Z,12.51
2017-09-10T00:58:35.906Z,12.53
2017-09-10T01:01:04.714Z,12.56
2017-09-10T01:03:33.017Z,12.56
2017-09-10T01:06:01.320Z,12.56
2017-09-10T01:08:30.417Z,12.58
2017-09-10T01:10:59.032Z,12.61
2017-09-10T01:13:28.105Z,12.62
2017-09-10T01:15:57.783Z,12.64
2017-09-10T01:18:26.637Z,12.62
2017-09-10T01:20:57.323Z,12.61
2017-09-10T01:23:27.271Z,12.61
2017-09-10T01:25:56.338Z,12.57
2017-09-10T01:28:24.664Z,12.56
2017-09-10T01:30:54.893Z,12.56
2017-09-10T01:33:23.215Z,12.56
2017-09-10T01:35:51.548Z,12.52
2017-09-10T01:38:19.862Z,12.51
2017-09-10T01:40:48.161Z,12.48
2017-09-10T01:43:16.495Z,12.45
2017-09-10T01:45:45.198Z,12.42
2017-09-10T01:48:13.584Z,12.42
2017-09-10T01:50:41.948Z,12.42
2017-09-10T01:53:11.086Z,12.42
2017-09-10T01:55:39.406Z,12.41
2017-09-10T01:58:07.885Z,12.37
2017-09-10T02:00:37.417Z,12.32
2017-09-10T02:03:08.241Z,12.30
2017-09-10T02:05:36.584Z,12.25
2017-09-10T02:08:07.488Z,12.22
2017-09-10T02:10:35.790Z,12.21
2017-09-10T02:13:05.935Z,12.21
2017-09-10T02:15:34.245Z,12.19
2017-09-10T02:18:03.569Z,12.16
2017-09-10T02:20:32.190Z,12.17
2017-09-10T02:23:01.815Z,12.16
2017-09-10T02:25:30.154Z,12.15
2017-09-10T02:27:59.256Z,12.12
2017-09-10T02:30:28.324Z,12.11
2017-09-10T02:32:56.811Z,12.07
2017-09-10T02:35:26.298Z,12.08
2017-09-10T02:40:32.671Z,12.10
2017-09-10T02:43:04.113Z,12.08
2017-09-10T02:45:32.555Z,12.09
2017-09-10T02:48:01.749Z,12.11
2017-09-10T02:50:32.063Z,12.08
2017-09-10T02:53:00.369Z,12.08
2017-09-10T02:55:29.068Z,12.07
2017-09-10T02:57:58.143Z,12.07
2017-09-10T03:00:26.767Z,12.08
2017-09-10T03:02:57.055Z,12.08
2017-09-10T03:05:26.203Z,12.06
2017-09-10T03:07:54.584Z,12.06
2017-09-10T03:10:23.666Z,12.05
2017-09-10T03:12:52.755Z,12.04
2017-09-10T03:15:21.080Z,12.05
2017-09-10T03:17:52.311Z,12.04
2017-09-10T03:20:20.636Z,12.01
2017-09-10T03:22:48.964Z,11.97
2017-09-10T03:25:18.660Z,11.96
2017-09-10T03:27:48.090Z,11.93
2017-09-10T03:30:17.178Z,11.92
2017-09-10T03:32:46.291Z,11.90
2017-09-10T03:35:15.383Z,11.89
2017-09-10T03:37:44.447Z,11.89
2017-09-10T03:40:12.762Z,11.86
2017-09-10T03:42:42.187Z,11.84
2017-09-10T03:45:10.524Z,11.81
2017-09-10T03:47:38.889Z,11.80
2017-09-10T03:50:08.283Z,11.80
2017-09-10T03:52:36.575Z,11.78
2017-09-10T03:55:05.629Z,11.78
2017-09-10T03:57:34.868Z,11.81
2017-09-10T04:00:03.215Z,11.79
2017-09-10T04:02:32.303Z,11.78
2017-09-10T04:05:01.419Z,11.76
2017-09-10T04:07:30.514Z,11.74
2017-09-10T04:09:59.582Z,11.73
2017-09-10T04:12:27.881Z,11.72
2017-09-10T04:14:56.184Z,11.71
2017-09-10T04:17:25.311Z,11.70
2017-09-10T04:19:53.606Z,11.67
2017-09-10T04:22:23.424Z,11.65
2017-09-10T04:24:51.720Z,11.66
2017-09-10T04:27:20.062Z,11.67
2017-09-10T04:29:48.940Z,11.63
2017-09-10T04:32:17.669Z,11.61
2017-09-10T04:34:45.981Z,11.61
2017-09-10T04:37:14.273Z,11.61
2017-09-10T04:39:42.711Z,11.61
2017-09-10T04:42:11.032Z,11.60
2017-09-10T04:44:40.124Z,11.59
2017-09-10T04:47:08.478Z,11.60
2017-09-10T04:49:36.801Z,11.59
2017-09-10T04:52:05.445Z,11.59
2017-09-10T04:54:33.801Z,11.59
2017-09-10T04:57:02.219Z,11.58
2017-09-10T04:59:30.586Z,11.56
2017-09-10T05:01:59.720Z,11.55
2017-09-10T05:04:28.058Z,11.56
2017-09-10T05:06:57.198Z,11.56
2017-09-10T05:09:25.522Z,11.60
2017-09-10T05:11:54.619Z,11.61
2017-09-10T05:14:23.739Z,11.60
2017-09-10T05:16:52.829Z,11.61
2017-09-10T05:19:21.944Z,11.62
2017-09-10T05:21:50.245Z,11.63
2017-09-10T05:24:18.581Z,11.63
2017-09-10T05:26:46.994Z,11.65
2017-09-10T05:29:16.064Z,11.64
2017-09-10T05:31:44.361Z,11.66
2017-09-10T05:34:13.047Z,11.66
2017-09-10T05:36:42.135Z,11.66
2017-09-10T05:39:13.395Z,11.69
2017-09-10T05:41:42.495Z,11.71
2017-09-10T05:44:11.582Z,11.76
2017-09-10T05:46:39.999Z,11.78
2017-09-10T05:49:09.077Z,11.85
2017-09-10T05:51:42.719Z,11.88
2017-09-10T05:54:11.273Z,11.91
2017-09-10T05:56:40.380Z,11.94
2017-09-10T05:59:08.784Z,11.99
2017-09-10T06:01:37.124Z,12.03
2017-09-10T06:04:06.342Z,12.04
2017-09-10T06:06:35.850Z,12.08
2017-09-10T06:09:04.230Z,12.11
2017-09-10T06:11:33.301Z,12.15
2017-09-10T06:14:01.635Z,12.19
2017-09-10T06:16:30.682Z,12.22
2017-09-10T06:18:59.031Z,12.25
2017-09-10T06:21:27.464Z,12.29
2017-09-10T06:23:59.791Z,12.36
2017-09-10T06:26:28.098Z,12.39
2017-09-10T06:28:56.391Z,12.44
2017-09-10T06:31:24.852Z,12.50
2017-09-10T06:33:53.172Z,12.53
2017-09-10T06:36:23.089Z,12.61
2017-09-10T06:38:51.411Z,12.65
2017-09-10T06:41:19.727Z,12.70
2017-09-10T06:43:48.042Z,12.77
2017-09-10T06:46:17.195Z,12.82
2017-09-10T06:48:57.732Z,12.87
2017-09-10T06:51:27.417Z,12.95
2017-09-10T06:53:57.384Z,13.01
2017-09-10T06:56:25.724Z,13.11
2017-09-10T06:58:54.780Z,13.27
2017-09-10T07:01:23.093Z,13.48
2017-09-10T07:03:51.400Z,13.61
2017-09-10T07:06:20.489Z,13.67
2017-09-10T07:08:49.613Z,13.73
2017-09-10T07:11:19.124Z,13.78
2017-09-10T07:13:47.436Z,13.81
2017-09-10T07:16:16.141Z,13.85
2017-09-10T07:18:44.440Z,13.91
2017-09-10T07:21:12.795Z,13.99
2017-09-10T07:23:41.093Z,14.02
2017-09-10T07:26:10.269Z,14.08
2017-09-10T07:28:38.605Z,14.16
2017-09-10T07:31:07.712Z,14.23
2017-09-10T07:33:36.783Z,14.29
2017-09-10T07:36:05.451Z,14.37
2017-09-10T07:38:33.766Z,14.46
2017-09-10T07:41:02.868Z,14.55
2017-09-10T07:43:31.204Z,14.64
2017-09-10T07:45:59.560Z,14.69
2017-09-10T07:48:27.925Z,14.80
2017-09-10T07:50:57.006Z,14.88
2017-09-10T07:53:25.331Z,14.99
2017-09-10T07:55:53.648Z,15.13
2017-09-10T07:58:22.764Z,15.27
2017-09-10T08:00:52.414Z,15.40
2017-09-10T08:03:21.982Z,15.54
2017-09-10T08:05:50.289Z,15.59
2017-09-10T08:08:19.385Z,15.58
2017-09-10T08:10:48.482Z,15.57
2017-09-10T08:13:17.551Z,15.58
2017-09-10T08:15:45.889Z,15.64
2017-09-10T08:18:14.953Z,15.67
2017-09-10T08:20:44.947Z,15.72
2017-09-10T08:23:13.279Z,15.82
2017-09-10T08:25:41.609Z,15.93
2017-09-10T08:28:09.943Z,16.12
2017-09-10T08:30:39.027Z,16.57
2017-09-10T08:33:07.379Z,17.24
2017-09-10T08:35:35.699Z,17.86
2017-09-10T08:38:04.010Z,18.27
2017-09-10T08:40:32.323Z,18.42
2017-09-10T08:43:00.661Z,18.40
2017-09-10T08:45:29.737Z,18.48
2017-09-10T08:47:58.809Z,18.62
2017-09-10T08:50:27.167Z,18.80
2017-09-10T08:52:55.487Z,18.89
2017-09-10T08:55:24.503Z,18.87
2017-09-10T08:57:52.860Z,18.82
2017-09-10T09:00:21.183Z,18.65
2017-09-10T09:02:50.347Z,18.55
2017-09-10T09:05:18.684Z,18.55
2017-09-10T09:07:47.016Z,18.69
2017-09-10T09:10:15.331Z,18.99
2017-09-10T09:12:44.416Z,19.38
2017-09-10T09:15:12.795Z,19.70
2017-09-10T09:17:41.166Z,19.95
2017-09-10T09:20:09.514Z,19.98
2017-09-10T09:22:37.840Z,20.15
2017-09-10T09:25:06.147Z,20.45
2017-09-10T09:27:35.247Z,20.54
2017-09-10T09:30:04.321Z,20.75
2017-09-10T09:32:33.541Z,20.77
2017-09-10T09:35:02.635Z,20.98
2017-09-10T09:37:31.733Z,21.15
2017-09-10T09:40:00.048Z,21.45
2017-09-10T09:42:28.377Z,21.82
2017-09-10T09:44:56.689Z,22.12
2017-09-10T09:47:25.045Z,21.93
2017-09-10T09:49:53.343Z,21.81
2017-09-10T09:52:22.425Z,21.54
2017-09-10T09:54:53.771Z,21.34
2017-09-10T09:57:22.094Z,21.08
2017-09-10T09:59:51.147Z,21.16
2017-09-10T10:02:19.441Z,21.11
2017-09-10T10:04:47.815Z,20.78
2017-09-10T10:07:16.120Z,20.46
2017-09-10T10:09:44.419Z,20.22
2017-09-10T10:12:13.553Z,20.19
2017-09-10T10:14:41.843Z,20.35
2017-09-10T10:17:10.184Z,20.66
2017-09-10T10:19:39.255Z,20.41
2017-09-10T10:22:07.573Z,20.20
2017-09-10T10:24:35.863Z,20.23
2017-09-10T10:27:04.947Z,20.15
2017-09-10T10:29:41.530Z,19.96
2017-09-10T10:32:11.030Z,19.81
2017-09-10T10:34:40.124Z,19.67
2017-09-10T10:37:09.230Z,19.60
2017-09-10T10:39:38.526Z,19.68
2017-09-10T10:42:08.897Z,19.85
2017-09-10T10:44:37.938Z,20.37
2017-09-10T10:47:07.720Z,20.99
2017-09-10T10:49:36.035Z,21.34
2017-09-10T10:52:06.211Z,21.58
2017-09-10T10:54:34.892Z,21.51
2017-09-10T10:57:03.905Z,21.61
2017-09-10T10:59:32.215Z,21.56
2017-09-10T11:02:00.556Z,21.34
2017-09-10T11:04:29.619Z,21.44
2017-09-10T11:06:57.931Z,21.80
2017-09-10T11:09:26.228Z,21.77
2017-09-10T11:11:54.528Z,21.69
2017-09-10T11:14:22.832Z,21.71
2017-09-10T11:16:51.149Z,22.03
2017-09-10T11:19:20.211Z,22.40
2017-09-10T11:21:48.656Z,22.49
2017-09-10T11:24:16.980Z,22.64
2017-09-10T11:26:45.322Z,22.75
2017-09-10T11:29:14.505Z,22.70
2017-09-10T11:31:42.808Z,22.97
2017-09-10T11:34:11.149Z,23.14
2017-09-10T11:36:39.779Z,22.78
2017-09-10T11:39:08.083Z,22.70
2017-09-10T11:41:36.414Z,23.00
2017-09-10T11:44:05.488Z,23.14
2017-09-10T11:46:33.838Z,23.14
2017-09-10T11:49:02.202Z,23.54
2017-09-10T11:51:31.210Z,23.79
2017-09-10T11:53:59.524Z,23.85
2017-09-10T11:56:27.831Z,23.73
2017-09-10T11:58:56.163Z,23.73
2017-09-10T12:01:24.518Z,23.71
2017-09-10T12:03:52.819Z,23.30
2017-09-10T12:06:21.102Z,23.09
2017-09-10T12:08:49.413Z,22.59
2017-09-10T12:11:17.788Z,22.13
2017-09-10T12:13:46.127Z,21.83
2017-09-10T12:16:15.198Z,21.95
2017-09-10T12:18:43.491Z,22.27
2017-09-10T12:21:11.938Z,22.60
2017-09-10T12:23:40.244Z,22.92
2017-09-10T12:26:08.540Z,23.04
2017-09-10T12:28:36.845Z,22.91
2017-09-10T12:31:05.158Z,22.74
2017-09-10T12:33:33.725Z,22.29
2017-09-10T12:36:02.061Z,21.81
2017-09-10T12:38:31.825Z,21.60
2017-09-10T12:41:00.135Z,21.80
2017-09-10T12:43:28.454Z,22.06
2017-09-10T12:45:57.541Z,22.01
2017-09-10T12:48:25.848Z,21.92
2017-09-10T12:50:54.904Z,21.89
2017-09-10T12:53:23.221Z,21.97
2017-09-10T12:55:52.353Z,21.96
2017-09-10T12:58:20.643Z,21.97
2017-09-10T13:00:48.964Z,21.84
2017-09-10T13:03:17.261Z,21.70
2017-09-10T13:05:45.620Z,21.52
2017-09-10T13:08:13.958Z,21.37
2017-09-10T13:10:42.280Z,21.34
2017-09-10T13:13:10.621Z,21.24
2017-09-10T13:15:39.723Z,20.92
2017-09-10T13:18:08.073Z,20.72
2017-09-10T13:20:36.678Z,20.83
2017-09-10T13:23:05.019Z,21.45
2017-09-10T13:25:33.350Z,21.78
2017-09-10T13:28:01.700Z,21.96
2017-09-10T13:30:30.829Z,22.04
2017-09-10T13:32:59.225Z,21.91
2017-09-10T13:35:27.531Z,21.75
2017-09-10T13:37:55.839Z,21.89
2017-09-10T13:40:24.193Z,22.20
2017-09-10T13:42:52.533Z,22.73
2017-09-10T13:45:21.598Z,23.02
2017-09-10T13:47:49.912Z,22.93
2017-09-10T13:50:18.227Z,22.83
2017-09-10T13:52:46.566Z,22.80
2017-09-10T13:55:14.884Z,22.67
2017-09-10T13:57:43.484Z,22.46
2017-09-10T14:00:11.828Z,22.13
2017-09-10T14:02:40.894Z,21.96
2017-09-10T14:05:09.180Z,21.91
2017-09-10T14:07:38.297Z,22.05
2017-09-10T14:10:07.513Z,22.33
2017-09-10T14:12:36.883Z,22.26
2017-09-10T14:15:05.188Z,21.99
2017-09-10T14:17:34.264Z,21.78
2017-09-10T14:20:02.654Z,21.69
2017-09-10T14:22:31.716Z,21.61
2017-09-10T14:25:00.655Z,21.36
2017-09-10T14:27:30.648Z,21.23
2017-09-10T14:29:58.993Z,21.27
2017-09-10T14:32:28.073Z,21.11
2017-09-10T14:34:57.148Z,21.04
2017-09-10T14:37:25.501Z,21.35
2017-09-10T14:39:54.600Z,21.27
2017-09-10T14:42:22.922Z,21.04
2017-09-10T14:44:51.592Z,20.94
2017-09-10T14:47:19.896Z,20.85
2017-09-10T14:49:48.230Z,21.05
2017-09-10T14:52:16.558Z,21.50
2017-09-10T14:54:44.881Z,21.75
2017-09-10T14:57:13.211Z,21.70
2017-09-10T14:59:41.970Z,21.63
2017-09-10T15:02:10.253Z,21.48
2017-09-10T15:04:38.586Z,21.11
2017-09-10T15:07:08.459Z,20.75
2017-09-10T15:09:37.712Z,20.47
2017-09-10T15:12:06.794Z,20.24
2017-09-10T15:14:35.091Z,20.15
2017-09-10T15:17:04.196Z,20.30
2017-09-10T15:19:32.513Z,20.42
2017-09-10T15:22:00.804Z,20.49
2017-09-10T15:24:29.112Z,20.41
2017-09-10T15:26:57.406Z,20.48
2017-09-10T15:29:25.735Z,20.59
2017-09-10T15:31:54.046Z,20.56
2017-09-10T15:34:25.635Z,20.49
2017-09-10T15:36:54.963Z,20.45
2017-09-10T15:39:24.772Z,20.39
2017-09-10T15:41:53.874Z,20.34
2017-09-10T15:44:22.972Z,20.26
2017-09-10T15:46:52.107Z,20.21
2017-09-10T15:49:20.455Z,20.20
2017-09-10T15:51:49.622Z,20.23
2017-09-10T15:54:18.824Z,20.23
2017-09-10T15:56:47.123Z,20.26
2017-09-10T15:59:15.680Z,20.29
2017-09-10T16:01:44.056Z,20.30
2017-09-10T16:04:12.357Z,20.31
2017-09-10T16:06:40.675Z,20.20
2017-09-10T16:09:09.019Z,20.09
2017-09-10T16:11:38.179Z,20.06
2017-09-10T16:14:07.226Z,19.97
2017-09-10T16:16:35.518Z,19.95
2017-09-10T16:19:03.920Z,19.87
2017-09-10T16:21:33.000Z,19.68
2017-09-10T16:24:01.403Z,19.52
2017-09-10T16:26:30.481Z,19.37
2017-09-10T16:28:58.793Z,19.20
2017-09-10T16:31:27.093Z,19.02
2017-09-10T16:33:55.436Z,18.90
2017-09-10T16:36:25.584Z,18.80
2017-09-10T16:38:53.883Z,18.80
2017-09-10T16:41:22.601Z,18.73
2017-09-10T16:43:50.903Z,18.60
2017-09-10T16:46:19.265Z,18.50
2017-09-10T16:48:48.361Z,18.34
2017-09-10T16:51:16.736Z,18.23
2017-09-10T16:53:45.122Z,18.08
2017-09-10T16:56:13.434Z,17.99
2017-09-10T16:58:41.731Z,17.94
2017-09-10T17:01:10.088Z,17.91
2017-09-10T17:03:38.399Z,17.92
2017-09-10T17:06:07.506Z,17.92
2017-09-10T17:08:37.592Z,17.93
2017-09-10T17:11:06.169Z,17.93
2017-09-10T17:13:35.038Z,17.91
2017-09-10T17:16:03.360Z,17.88
2017-09-10T17:18:31.647Z,17.83
2017-09-10T17:21:00.010Z,17.84
2017-09-10T17:23:28.309Z,17.81
2017-09-10T17:25:56.641Z,17.78
2017-09-10T17:28:24.959Z,17.74
2017-09-10T17:30:53.258Z,17.73
2017-09-10T17:33:21.561Z,17.68
2017-09-10T17:35:49.946Z,17.61
2017-09-10T17:38:19.016Z,17.54
2017-09-10T17:40:47.430Z,17.49
2017-09-10T17:43:15.768Z,17.46
2017-09-10T17:45:49.287Z,17.41
2017-09-10T17:48:19.666Z,17.38
2017-09-10T17:50:49.432Z,17.33
2017-09-10T17:53:17.741Z,17.26
2017-09-10T17:55:46.830Z,17.21
2017-09-10T17:58:15.159Z,17.18
2017-09-10T18:00:43.476Z,17.20
2017-09-10T18:03:11.789Z,17.20
2017-09-10T18:05:40.993Z,17.19
2017-09-10T18:08:10.069Z,17.16
2017-09-10T18:10:38.363Z,17.13
2017-09-10T18:13:06.714Z,17.11
2017-09-10T18:15:35.019Z,17.09
2017-09-10T18:18:03.327Z,17.09
2017-09-10T18:20:31.715Z,17.08
2017-09-10T18:23:00.037Z,17.07
2017-09-10T18:25:28.360Z,17.07
2017-09-10T18:27:56.693Z,17.06
2017-09-10T18:30:25.051Z,17.05
2017-09-10T18:32:53.373Z,17.04
2017-09-10T18:35:21.693Z,17.02
2017-09-10T18:37:50.793Z,17.02
2017-09-10T18:40:20.782Z,17.02
2017-09-10T18:42:49.099Z,17.01
2017-09-10T18:45:18.243Z,17.00
2017-09-10T18:47:46.558Z,16.99
2017-09-10T18:50:14.903Z,17.00
2017-09-10T18:52:43.205Z,17.00
2017-09-10T18:55:12.387Z,17.00
2017-09-10T18:57:41.475Z,17.01
2017-09-10T19:00:09.784Z,17.02
2017-09-10T19:02:38.066Z,17.02
2017-09-10T19:05:06.389Z,17.02
2017-09-10T19:07:35.433Z,17.01
2017-09-10T19:10:03.799Z,16.99
2017-09-10T19:12:32.858Z,16.98
2017-09-10T19:15:01.335Z,16.96
2017-09-10T19:17:29.991Z,16.94
2017-09-10T19:19:58.284Z,16.92
2017-09-10T19:22:26.614Z,16.89
2017-09-10T19:24:55.693Z,16.88
2017-09-10T19:27:24.006Z,16.86
2017-09-10T19:29:52.624Z,16.84
2017-09-10T19:32:20.995Z,16.84
2017-09-10T19:34:49.983Z,16.85
2017-09-10T19:37:18.299Z,16.86
2017-09-10T19:39:46.595Z,16.87
2017-09-10T19:42:14.996Z,16.86
2017-09-10T19:44:43.324Z,16.86
2017-09-10T19:47:13.023Z,16.81
2017-09-10T19:49:41.362Z,16.71
2017-09-10T19:52:09.713Z,16.59
2017-09-10T19:54:38.021Z,16.50
2017-09-10T19:57:06.373Z,16.48
2017-09-10T19:59:34.696Z,16.44
2017-09-10T20:02:03.058Z,16.38
2017-09-10T20:04:31.370Z,16.36
2017-09-10T20:06:59.662Z,16.35
2017-09-10T20:09:28.841Z,16.34
2017-09-10T20:11:57.215Z,16.31
2017-09-10T20:14:25.520Z,16.29
2017-09-10T20:16:53.852Z,16.29
2017-09-10T20:19:22.183Z,16.23
2017-09-10T20:21:50.513Z,16.14
2017-09-10T20:24:18.857Z,16.01
2017-09-10T20:26:47.474Z,15.90
2017-09-10T20:29:15.812Z,15.84
2017-09-10T20:31:44.124Z,15.79
2017-09-10T20:34:13.201Z,15.76
2017-09-10T20:36:41.519Z,15.71
2017-09-10T20:39:10.591Z,15.69
2017-09-10T20:41:39.568Z,15.69
2017-09-10T20:44:07.870Z,15.71
2017-09-10T20:46:36.194Z,15.72
2017-09-10T20:49:04.519Z,15.76
2017-09-10T20:51:32.826Z,15.79
2017-09-10T20:54:01.907Z,15.84
2017-09-10T20:56:31.145Z,15.88
2017-09-10T20:59:01.130Z,15.92
2017-09-10T21:01:29.418Z,15.92
2017-09-10T21:03:57.753Z,15.94
2017-09-10T21:06:26.080Z,15.96
2017-09-10T21:08:54.391Z,15.97
2017-09-10T21:11:23.470Z,15.97
2017-09-10T21:13:51.784Z,15.99
2017-09-10T21:16:20.185Z,16.03
2017-09-10T21:18:48.491Z,16.06
2017-09-10T21:21:17.588Z,16.09
2017-09-10T21:23:46.580Z,16.12
2017-09-10T21:26:16.112Z,16.16
2017-09-10T21:28:44.478Z,16.16
2017-09-10T21:31:13.619Z,16.18
2017-09-10T21:33:42.698Z,16.16
2017-09-10T21:36:10.997Z,16.09
2017-09-10T21:38:40.089Z,16.04
2017-09-10T21:41:08.379Z,15.93
2017-09-10T21:43:37.623Z,15.80
2017-09-10T21:46:06.627Z,15.67
2017-09-10T21:48:34.931Z,15.56
2017-09-10T21:51:04.063Z,15.47
2017-09-10T21:53:33.368Z,15.40
2017-09-10T21:56:02.490Z,15.33
2017-09-10T21:58:32.392Z,15.28
2017-09-10T22:01:01.491Z,15.25
2017-09-10T22:03:30.547Z,15.22
2017-09-10T22:05:59.111Z,15.22
2017-09-10T22:08:27.563Z,15.21
2017-09-10T22:10:56.705Z,15.21
2017-09-10T22:13:25.020Z,15.20
2017-09-10T22:15:54.050Z,15.19
2017-09-10T22:18:23.139Z,15.21
2017-09-10T22:20:52.206Z,15.21
2017-09-10T22:23:20.496Z,15.24
2017-09-10T22:25:48.810Z,15.26
2017-09-10T22:28:17.927Z,15.29
2017-09-10T22:30:47.657Z,15.30
2017-09-10T22:33:17.809Z,15.34
2017-09-10T22:35:46.140Z,15.36
2017-09-10T22:38:15.228Z,15.38
2017-09-10T22:40:44.340Z,15.41
2017-09-10T22:43:12.663Z,15.42
2017-09-10T22:45:40.967Z,15.43
2017-09-10T22:48:09.296Z,15.43
2017-09-10T22:50:37.611Z,15.46
2017-09-10T22:53:05.899Z,15.47
2017-09-10T22:55:34.975Z,15.44
2017-09-10T22:58:03.287Z,15.40
2017-09-10T23:00:31.712Z,15.40
2017-09-10T23:03:00.024Z,15.39
2017-09-10T23:05:28.328Z,15.39
2017-09-10T23:07:56.631Z,15.40
2017-09-10T23:10:28.545Z,15.41
2017-09-10T23:12:56.843Z,15.42
2017-09-10T23:15:25.180Z,15.41
2017-09-10T23:17:53.494Z,15.40
2017-09-10T23:20:22.670Z,15.39
2017-09-10T23:22:51.794Z,15.40
2017-09-10T23:25:21.647Z,15.40
2017-09-10T23:27:50.121Z,15.40
2017-09-10T23:30:18.432Z,15.40
2017-09-10T23:35:21.342Z,15.40
2017-09-10T23:37:51.004Z,15.40
2017-09-10T23:40:19.302Z,15.42
2017-09-10T23:42:47.634Z,15.44
2017-09-10T23:45:17.288Z,15.45
2017-09-10T23:47:45.658Z,15.46
2017-09-10T23:50:13.963Z,15.46
2017-09-10T23:52:42.276Z,15.43
2017-09-10T23:55:10.588Z,15.40
2017-09-10T23:57:38.875Z,15.35
